sensor_id;sensor_type;location;lat;lon;timestamp;P1;durP1;ratioP1;P2;durP2;ratioP2
77769;SDS011;66961;51.482;9.160;2023-07-20T00:01:14;11.68;;;7.40;;
77769;SDS011;66961;51.482;9.160;2023-07-20T00:03:40;10.60;;;6.83;;
77769;SDS011;66961;51.482;9.160;2023-07-20T00:06:05;10.50;;;7.97;;
77769;SDS011;66961;51.482;9.160;2023-07-20T00:08:30;8.13;;;7.32;;
77769;SDS011;66961;51.482;9.160;2023-07-20T00:10:56;11.13;;;7.57;;
77769;SDS011;66961;51.482;9.160;2023-07-20T00:13:21;13.00;;;9.68;;
77769;SDS011;66961;51.482;9.160;2023-07-20T00:15:47;11.48;;;8.40;;
77769;SDS011;66961;51.482;9.160;2023-07-20T00:18:12;12.00;;;10.50;;
77769;SDS011;66961;51.482;9.160;2023-07-20T00:20:38;11.18;;;9.98;;
77769;SDS011;66961;51.482;9.160;2023-07-20T00:23:03;13.17;;;11.30;;
77769;SDS011;66961;51.482;9.160;2023-07-20T00:25:28;11.35;;;10.15;;
77769;SDS011;66961;51.482;9.160;2023-07-20T00:27:53;13.27;;;10.45;;
77769;SDS011;66961;51.482;9.160;2023-07-20T00:30:19;12.10;;;10.27;;
77769;SDS011;66961;51.482;9.160;2023-07-20T00:32:44;14.30;;;11.93;;
77769;SDS011;66961;51.482;9.160;2023-07-20T00:35:10;13.07;;;11.50;;
77769;SDS011;66961;51.482;9.160;2023-07-20T00:37:35;16.63;;;12.40;;
77769;SDS011;66961;51.482;9.160;2023-07-20T00:40:01;15.07;;;11.40;;
77769;SDS011;66961;51.482;9.160;2023-07-20T00:42:26;15.18;;;12.18;;
77769;SDS011;66961;51.482;9.160;2023-07-20T00:44:51;13.13;;;11.55;;
77769;SDS011;66961;51.482;9.160;2023-07-20T00:47:17;15.10;;;11.50;;
77769;SDS011;66961;51.482;9.160;2023-07-20T00:49:42;15.77;;;13.27;;
77769;SDS011;66961;51.482;9.160;2023-07-20T00:52:08;13.55;;;10.75;;
77769;SDS011;66961;51.482;9.160;2023-07-20T00:54:35;17.33;;;11.50;;
77769;SDS011;66961;51.482;9.160;2023-07-20T00:57:02;16.15;;;13.05;;
77769;SDS011;66961;51.482;9.160;2023-07-20T00:59:27;15.48;;;12.23;;
77769;SDS011;66961;51.482;9.160;2023-07-20T01:01:53;18.92;;;13.05;;
77769;SDS011;66961;51.482;9.160;2023-07-20T01:04:18;13.63;;;11.63;;
77769;SDS011;66961;51.482;9.160;2023-07-20T01:06:45;16.38;;;11.90;;
77769;SDS011;66961;51.482;9.160;2023-07-20T01:09:26;15.20;;;12.40;;
77769;SDS011;66961;51.482;9.160;2023-07-20T01:12:08;15.05;;;11.48;;
77769;SDS011;66961;51.482;9.160;2023-07-20T01:14:55;15.98;;;12.70;;
77769;SDS011;66961;51.482;9.160;2023-07-20T01:17:21;15.82;;;12.13;;
77769;SDS011;66961;51.482;9.160;2023-07-20T01:19:46;14.63;;;12.05;;
77769;SDS011;66961;51.482;9.160;2023-07-20T01:30:59;11.98;;;10.77;;
77769;SDS011;66961;51.482;9.160;2023-07-20T01:33:24;12.88;;;11.45;;
77769;SDS011;66961;51.482;9.160;2023-07-20T01:35:53;15.55;;;11.20;;
77769;SDS011;66961;51.482;9.160;2023-07-20T01:38:21;14.20;;;12.05;;
77769;SDS011;66961;51.482;9.160;2023-07-20T01:40:49;14.00;;;11.18;;
77769;SDS011;66961;51.482;9.160;2023-07-20T01:43:16;13.18;;;10.60;;
77769;SDS011;66961;51.482;9.160;2023-07-20T01:45:41;15.98;;;11.50;;
77769;SDS011;66961;51.482;9.160;2023-07-20T01:48:07;14.63;;;12.50;;
77769;SDS011;66961;51.482;9.160;2023-07-20T01:50:32;15.02;;;12.90;;
77769;SDS011;66961;51.482;9.160;2023-07-20T01:52:57;14.75;;;13.23;;
77769;SDS011;66961;51.482;9.160;2023-07-20T01:55:23;14.17;;;11.80;;
77769;SDS011;66961;51.482;9.160;2023-07-20T01:57:48;13.87;;;12.43;;
77769;SDS011;66961;51.482;9.160;2023-07-20T02:00:13;13.97;;;12.27;;
77769;SDS011;66961;51.482;9.160;2023-07-20T02:02:39;17.10;;;11.95;;
77769;SDS011;66961;51.482;9.160;2023-07-20T02:05:04;14.70;;;11.23;;
77769;SDS011;66961;51.482;9.160;2023-07-20T02:07:29;12.45;;;10.57;;
77769;SDS011;66961;51.482;9.160;2023-07-20T02:09:55;17.67;;;11.73;;
77769;SDS011;66961;51.482;9.160;2023-07-20T02:12:20;15.10;;;11.67;;
77769;SDS011;66961;51.482;9.160;2023-07-20T02:14:45;13.30;;;11.83;;
77769;SDS011;66961;51.482;9.160;2023-07-20T02:17:10;11.87;;;10.57;;
77769;SDS011;66961;51.482;9.160;2023-07-20T02:19:36;14.30;;;12.80;;
77769;SDS011;66961;51.482;9.160;2023-07-20T02:22:02;14.60;;;12.32;;
77769;SDS011;66961;51.482;9.160;2023-07-20T02:24:27;14.02;;;12.30;;
77769;SDS011;66961;51.482;9.160;2023-07-20T02:26:52;12.83;;;11.47;;
77769;SDS011;66961;51.482;9.160;2023-07-20T02:29:18;16.67;;;12.23;;
77769;SDS011;66961;51.482;9.160;2023-07-20T02:31:43;15.83;;;14.23;;
77769;SDS011;66961;51.482;9.160;2023-07-20T02:34:08;13.77;;;11.73;;
77769;SDS011;66961;51.482;9.160;2023-07-20T02:36:34;15.85;;;13.25;;
77769;SDS011;66961;51.482;9.160;2023-07-20T02:39:00;16.67;;;14.25;;
77769;SDS011;66961;51.482;9.160;2023-07-20T02:41:25;16.10;;;13.43;;
77769;SDS011;66961;51.482;9.160;2023-07-20T02:43:50;18.77;;;14.57;;
77769;SDS011;66961;51.482;9.160;2023-07-20T02:46:16;16.50;;;13.87;;
77769;SDS011;66961;51.482;9.160;2023-07-20T02:48:41;15.10;;;12.33;;
77769;SDS011;66961;51.482;9.160;2023-07-20T02:51:06;15.50;;;13.20;;
77769;SDS011;66961;51.482;9.160;2023-07-20T02:53:31;15.80;;;12.70;;
77769;SDS011;66961;51.482;9.160;2023-07-20T02:55:57;17.07;;;12.07;;
77769;SDS011;66961;51.482;9.160;2023-07-20T02:58:22;14.87;;;13.33;;
77769;SDS011;66961;51.482;9.160;2023-07-20T03:00:47;17.53;;;13.70;;
77769;SDS011;66961;51.482;9.160;2023-07-20T03:03:12;16.50;;;13.20;;
77769;SDS011;66961;51.482;9.160;2023-07-20T03:05:40;16.10;;;12.60;;
77769;SDS011;66961;51.482;9.160;2023-07-20T03:08:05;19.30;;;14.73;;
77769;SDS011;66961;51.482;9.160;2023-07-20T03:10:31;15.67;;;13.37;;
77769;SDS011;66961;51.482;9.160;2023-07-20T03:12:56;18.95;;;14.82;;
77769;SDS011;66961;51.482;9.160;2023-07-20T03:15:22;17.30;;;14.40;;
77769;SDS011;66961;51.482;9.160;2023-07-20T03:17:47;18.77;;;14.27;;
77769;SDS011;66961;51.482;9.160;2023-07-20T03:20:12;23.92;;;15.90;;
77769;SDS011;66961;51.482;9.160;2023-07-20T03:22:38;21.13;;;15.95;;
77769;SDS011;66961;51.482;9.160;2023-07-20T03:25:03;22.13;;;17.27;;
77769;SDS011;66961;51.482;9.160;2023-07-20T03:27:29;25.95;;;18.65;;
77769;SDS011;66961;51.482;9.160;2023-07-20T03:29:54;27.80;;;20.15;;
77769;SDS011;66961;51.482;9.160;2023-07-20T03:32:19;21.77;;;16.90;;
77769;SDS011;66961;51.482;9.160;2023-07-20T03:34:45;25.97;;;18.03;;
77769;SDS011;66961;51.482;9.160;2023-07-20T03:37:10;26.03;;;18.03;;
77769;SDS011;66961;51.482;9.160;2023-07-20T03:39:35;20.47;;;15.70;;
77769;SDS011;66961;51.482;9.160;2023-07-20T03:42:00;28.80;;;19.03;;
77769;SDS011;66961;51.482;9.160;2023-07-20T03:44:26;24.80;;;17.42;;
77769;SDS011;66961;51.482;9.160;2023-07-20T03:46:51;25.50;;;17.80;;
77769;SDS011;66961;51.482;9.160;2023-07-20T03:49:16;29.77;;;17.27;;
77769;SDS011;66961;51.482;9.160;2023-07-20T03:51:42;32.67;;;15.27;;
77769;SDS011;66961;51.482;9.160;2023-07-20T03:54:07;21.77;;;14.43;;
77769;SDS011;66961;51.482;9.160;2023-07-20T03:56:32;26.17;;;14.97;;
77769;SDS011;66961;51.482;9.160;2023-07-20T03:58:57;26.20;;;14.30;;
77769;SDS011;66961;51.482;9.160;2023-07-20T04:01:23;23.37;;;15.30;;
77769;SDS011;66961;51.482;9.160;2023-07-20T04:03:48;29.83;;;16.50;;
77769;SDS011;66961;51.482;9.160;2023-07-20T04:06:13;33.47;;;17.03;;
77769;SDS011;66961;51.482;9.160;2023-07-20T04:08:38;32.63;;;18.27;;
77769;SDS011;66961;51.482;9.160;2023-07-20T04:11:04;33.20;;;17.83;;
77769;SDS011;66961;51.482;9.160;2023-07-20T04:13:29;32.17;;;17.77;;
77769;SDS011;66961;51.482;9.160;2023-07-20T04:15:54;24.38;;;16.67;;
77769;SDS011;66961;51.482;9.160;2023-07-20T04:18:20;27.70;;;16.87;;
77769;SDS011;66961;51.482;9.160;2023-07-20T04:20:45;31.88;;;17.80;;
77769;SDS011;66961;51.482;9.160;2023-07-20T04:23:10;30.27;;;19.02;;
77769;SDS011;66961;51.482;9.160;2023-07-20T04:25:36;28.38;;;19.17;;
77769;SDS011;66961;51.482;9.160;2023-07-20T04:28:05;26.48;;;17.73;;
77769;SDS011;66961;51.482;9.160;2023-07-20T04:30:33;24.45;;;16.50;;
77769;SDS011;66961;51.482;9.160;2023-07-20T04:32:59;28.13;;;17.67;;
77769;SDS011;66961;51.482;9.160;2023-07-20T04:38:19;26.23;;;17.23;;
77769;SDS011;66961;51.482;9.160;2023-07-20T04:40:45;26.90;;;17.52;;
77769;SDS011;66961;51.482;9.160;2023-07-20T04:43:11;23.83;;;15.95;;
77769;SDS011;66961;51.482;9.160;2023-07-20T04:45:37;28.95;;;17.30;;
77769;SDS011;66961;51.482;9.160;2023-07-20T04:48:03;28.00;;;16.17;;
77769;SDS011;66961;51.482;9.160;2023-07-20T04:50:29;29.38;;;16.40;;
77769;SDS011;66961;51.482;9.160;2023-07-20T04:52:54;25.60;;;16.13;;
77769;SDS011;66961;51.482;9.160;2023-07-20T04:55:20;28.50;;;15.03;;
77769;SDS011;66961;51.482;9.160;2023-07-20T04:57:45;24.07;;;13.90;;
77769;SDS011;66961;51.482;9.160;2023-07-20T05:00:10;21.83;;;14.20;;
77769;SDS011;66961;51.482;9.160;2023-07-20T05:02:36;23.60;;;14.30;;
77769;SDS011;66961;51.482;9.160;2023-07-20T05:05:02;20.45;;;14.23;;
77769;SDS011;66961;51.482;9.160;2023-07-20T05:07:28;19.25;;;13.98;;
77769;SDS011;66961;51.482;9.160;2023-07-20T05:09:53;23.73;;;16.57;;
77769;SDS011;66961;51.482;9.160;2023-07-20T05:12:18;29.07;;;16.70;;
77769;SDS011;66961;51.482;9.160;2023-07-20T05:14:44;27.53;;;17.17;;
77769;SDS011;66961;51.482;9.160;2023-07-20T05:17:09;24.73;;;16.77;;
77769;SDS011;66961;51.482;9.160;2023-07-20T05:19:34;27.27;;;18.43;;
77769;SDS011;66961;51.482;9.160;2023-07-20T05:21:59;29.93;;;18.57;;
77769;SDS011;66961;51.482;9.160;2023-07-20T05:24:25;29.27;;;19.23;;
77769;SDS011;66961;51.482;9.160;2023-07-20T05:26:50;32.00;;;21.43;;
77769;SDS011;66961;51.482;9.160;2023-07-20T05:29:15;41.77;;;22.90;;
77769;SDS011;66961;51.482;9.160;2023-07-20T05:31:40;37.67;;;24.13;;
77769;SDS011;66961;51.482;9.160;2023-07-20T05:34:06;40.07;;;23.17;;
77769;SDS011;66961;51.482;9.160;2023-07-20T05:36:31;40.57;;;25.33;;
77769;SDS011;66961;51.482;9.160;2023-07-20T05:38:56;40.00;;;24.47;;
77769;SDS011;66961;51.482;9.160;2023-07-20T05:41:21;37.63;;;21.47;;
77769;SDS011;66961;51.482;9.160;2023-07-20T05:43:47;37.93;;;23.00;;
77769;SDS011;66961;51.482;9.160;2023-07-20T05:46:12;35.50;;;22.80;;
77769;SDS011;66961;51.482;9.160;2023-07-20T05:48:37;35.80;;;24.13;;
77769;SDS011;66961;51.482;9.160;2023-07-20T05:51:02;35.47;;;23.97;;
77769;SDS011;66961;51.482;9.160;2023-07-20T05:53:28;37.63;;;23.20;;
77769;SDS011;66961;51.482;9.160;2023-07-20T05:55:53;37.90;;;23.20;;
77769;SDS011;66961;51.482;9.160;2023-07-20T05:58:19;38.22;;;23.48;;
77769;SDS011;66961;51.482;9.160;2023-07-20T06:00:47;38.60;;;24.52;;
77769;SDS011;66961;51.482;9.160;2023-07-20T06:03:13;36.42;;;23.92;;
77769;SDS011;66961;51.482;9.160;2023-07-20T06:05:38;28.63;;;18.93;;
77769;SDS011;66961;51.482;9.160;2023-07-20T06:08:03;30.17;;;19.00;;
77769;SDS011;66961;51.482;9.160;2023-07-20T06:10:29;23.27;;;16.25;;
77769;SDS011;66961;51.482;9.160;2023-07-20T06:12:54;20.60;;;14.87;;
77769;SDS011;66961;51.482;9.160;2023-07-20T06:15:32;19.57;;;15.10;;
77769;SDS011;66961;51.482;9.160;2023-07-20T06:17:58;18.80;;;14.20;;
77769;SDS011;66961;51.482;9.160;2023-07-20T06:20:23;20.63;;;13.93;;
77769;SDS011;66961;51.482;9.160;2023-07-20T06:22:49;18.92;;;12.90;;
77769;SDS011;66961;51.482;9.160;2023-07-20T06:25:14;12.13;;;8.80;;
77769;SDS011;66961;51.482;9.160;2023-07-20T06:27:40;14.48;;;10.18;;
77769;SDS011;66961;51.482;9.160;2023-07-20T06:30:05;10.25;;;7.85;;
77769;SDS011;66961;51.482;9.160;2023-07-20T06:32:31;9.45;;;7.75;;
77769;SDS011;66961;51.482;9.160;2023-07-20T06:34:56;11.00;;;9.07;;
77769;SDS011;66961;51.482;9.160;2023-07-20T06:37:21;11.33;;;8.23;;
77769;SDS011;66961;51.482;9.160;2023-07-20T06:39:47;11.93;;;8.03;;
77769;SDS011;66961;51.482;9.160;2023-07-20T06:42:12;8.70;;;6.40;;
77769;SDS011;66961;51.482;9.160;2023-07-20T06:44:37;6.87;;;5.73;;
77769;SDS011;66961;51.482;9.160;2023-07-20T06:47:03;9.63;;;6.17;;
77769;SDS011;66961;51.482;9.160;2023-07-20T06:49:28;6.68;;;5.45;;
77769;SDS011;66961;51.482;9.160;2023-07-20T06:51:54;9.50;;;5.72;;
77769;SDS011;66961;51.482;9.160;2023-07-20T06:54:19;6.32;;;4.88;;
77769;SDS011;66961;51.482;9.160;2023-07-20T06:56:44;4.45;;;3.33;;
77769;SDS011;66961;51.482;9.160;2023-07-20T06:59:10;4.20;;;3.25;;
77769;SDS011;66961;51.482;9.160;2023-07-20T07:01:35;3.47;;;2.60;;
77769;SDS011;66961;51.482;9.160;2023-07-20T07:04:00;3.97;;;2.80;;
77769;SDS011;66961;51.482;9.160;2023-07-20T07:06:26;3.25;;;2.80;;
77769;SDS011;66961;51.482;9.160;2023-07-20T07:08:51;4.23;;;3.27;;
77769;SDS011;66961;51.482;9.160;2023-07-20T07:11:17;4.80;;;3.35;;
77769;SDS011;66961;51.482;9.160;2023-07-20T07:13:42;3.33;;;2.67;;
77769;SDS011;66961;51.482;9.160;2023-07-20T07:16:07;3.40;;;2.90;;
77769;SDS011;66961;51.482;9.160;2023-07-20T07:18:33;4.27;;;3.60;;
77769;SDS011;66961;51.482;9.160;2023-07-20T07:20:58;4.20;;;3.33;;
77769;SDS011;66961;51.482;9.160;2023-07-20T07:23:23;4.03;;;3.50;;
77769;SDS011;66961;51.482;9.160;2023-07-20T07:25:48;6.30;;;3.80;;
77769;SDS011;66961;51.482;9.160;2023-07-20T07:28:14;5.10;;;3.70;;
77769;SDS011;66961;51.482;9.160;2023-07-20T07:30:39;5.60;;;4.00;;
77769;SDS011;66961;51.482;9.160;2023-07-20T07:33:04;4.57;;;4.15;;
77769;SDS011;66961;51.482;9.160;2023-07-20T07:35:30;4.87;;;4.37;;
77769;SDS011;66961;51.482;9.160;2023-07-20T07:37:55;5.30;;;4.07;;
77769;SDS011;66961;51.482;9.160;2023-07-20T07:40:20;4.97;;;4.33;;
77769;SDS011;66961;51.482;9.160;2023-07-20T07:42:45;6.43;;;4.70;;
77769;SDS011;66961;51.482;9.160;2023-07-20T07:45:11;5.03;;;4.53;;
77769;SDS011;66961;51.482;9.160;2023-07-20T07:47:36;6.43;;;5.33;;
77769;SDS011;66961;51.482;9.160;2023-07-20T07:50:01;6.80;;;5.30;;
77769;SDS011;66961;51.482;9.160;2023-07-20T07:52:27;7.88;;;5.65;;
77769;SDS011;66961;51.482;9.160;2023-07-20T07:54:52;6.60;;;5.20;;
77769;SDS011;66961;51.482;9.160;2023-07-20T07:57:18;5.90;;;5.27;;
77769;SDS011;66961;51.482;9.160;2023-07-20T07:59:43;6.53;;;4.90;;
77769;SDS011;66961;51.482;9.160;2023-07-20T08:02:08;8.27;;;5.67;;
77769;SDS011;66961;51.482;9.160;2023-07-20T08:04:34;7.27;;;5.33;;
77769;SDS011;66961;51.482;9.160;2023-07-20T08:06:59;7.87;;;5.70;;
77769;SDS011;66961;51.482;9.160;2023-07-20T08:09:24;6.20;;;5.60;;
77769;SDS011;66961;51.482;9.160;2023-07-20T08:11:50;6.87;;;5.03;;
77769;SDS011;66961;51.482;9.160;2023-07-20T08:14:15;7.47;;;5.20;;
77769;SDS011;66961;51.482;9.160;2023-07-20T08:16:40;6.00;;;5.40;;
77769;SDS011;66961;51.482;9.160;2023-07-20T08:19:05;6.13;;;5.18;;
77769;SDS011;66961;51.482;9.160;2023-07-20T08:21:31;6.57;;;5.27;;
77769;SDS011;66961;51.482;9.160;2023-07-20T08:23:56;5.37;;;4.80;;
77769;SDS011;66961;51.482;9.160;2023-07-20T08:26:22;4.83;;;4.33;;
77769;SDS011;66961;51.482;9.160;2023-07-20T08:28:48;5.47;;;4.60;;
77769;SDS011;66961;51.482;9.160;2023-07-20T08:31:13;5.77;;;4.63;;
77769;SDS011;66961;51.482;9.160;2023-07-20T08:33:38;4.75;;;4.35;;
77769;SDS011;66961;51.482;9.160;2023-07-20T08:36:04;4.93;;;4.35;;
77769;SDS011;66961;51.482;9.160;2023-07-20T08:38:29;6.28;;;4.70;;
77769;SDS011;66961;51.482;9.160;2023-07-20T08:40:55;4.90;;;4.40;;
77769;SDS011;66961;51.482;9.160;2023-07-20T08:43:20;4.97;;;4.47;;
77769;SDS011;66961;51.482;9.160;2023-07-20T08:45:47;3.67;;;3.22;;
77769;SDS011;66961;51.482;9.160;2023-07-20T08:48:14;4.00;;;2.97;;
77769;SDS011;66961;51.482;9.160;2023-07-20T08:50:40;5.60;;;4.57;;
77769;SDS011;66961;51.482;9.160;2023-07-20T08:53:07;3.80;;;3.40;;
77769;SDS011;66961;51.482;9.160;2023-07-20T08:55:35;4.53;;;3.92;;
77769;SDS011;66961;51.482;9.160;2023-07-20T08:58:01;3.58;;;3.28;;
77769;SDS011;66961;51.482;9.160;2023-07-20T09:00:27;2.75;;;2.47;;
77769;SDS011;66961;51.482;9.160;2023-07-20T09:02:53;2.15;;;1.80;;
77769;SDS011;66961;51.482;9.160;2023-07-20T09:05:19;2.58;;;1.70;;
77769;SDS011;66961;51.482;9.160;2023-07-20T09:07:45;2.47;;;1.50;;
77769;SDS011;66961;51.482;9.160;2023-07-20T09:10:11;1.88;;;1.50;;
77769;SDS011;66961;51.482;9.160;2023-07-20T09:12:37;1.60;;;1.40;;
77769;SDS011;66961;51.482;9.160;2023-07-20T09:15:06;2.25;;;0.90;;
77769;SDS011;66961;51.482;9.160;2023-07-20T09:17:33;1.45;;;0.90;;
77769;SDS011;66961;51.482;9.160;2023-07-20T09:19:59;0.90;;;0.70;;
77769;SDS011;66961;51.482;9.160;2023-07-20T09:22:30;3.60;;;0.80;;
77769;SDS011;66961;51.482;9.160;2023-07-20T09:24:56;1.52;;;0.82;;
77769;SDS011;66961;51.482;9.160;2023-07-20T09:27:22;2.03;;;0.40;;
77769;SDS011;66961;51.482;9.160;2023-07-20T09:29:59;0.73;;;0.43;;
77769;SDS011;66961;51.482;9.160;2023-07-20T09:32:24;0.90;;;0.60;;
77769;SDS011;66961;51.482;9.160;2023-07-20T09:34:50;0.97;;;0.40;;
77769;SDS011;66961;51.482;9.160;2023-07-20T09:37:19;0.80;;;0.30;;
77769;SDS011;66961;51.482;9.160;2023-07-20T09:39:45;1.13;;;0.40;;
77769;SDS011;66961;51.482;9.160;2023-07-20T09:42:11;0.55;;;0.30;;
77769;SDS011;66961;51.482;9.160;2023-07-20T09:44:37;1.08;;;0.30;;
77769;SDS011;66961;51.482;9.160;2023-07-20T09:47:03;0.63;;;0.20;;
77769;SDS011;66961;51.482;9.160;2023-07-20T09:49:29;0.90;;;0.22;;
77769;SDS011;66961;51.482;9.160;2023-07-20T09:51:54;1.98;;;1.00;;
77769;SDS011;66961;51.482;9.160;2023-07-20T09:54:20;1.40;;;0.77;;
77769;SDS011;66961;51.482;9.160;2023-07-20T09:56:46;1.52;;;0.50;;
77769;SDS011;66961;51.482;9.160;2023-07-20T09:59:13;1.02;;;0.50;;
77769;SDS011;66961;51.482;9.160;2023-07-20T10:01:39;2.90;;;1.33;;
77769;SDS011;66961;51.482;9.160;2023-07-20T10:04:08;1.85;;;0.45;;
77769;SDS011;66961;51.482;9.160;2023-07-20T10:06:36;1.30;;;0.57;;
77769;SDS011;66961;51.482;9.160;2023-07-20T10:09:06;0.70;;;0.40;;
77769;SDS011;66961;51.482;9.160;2023-07-20T10:11:35;1.30;;;0.60;;
77769;SDS011;66961;51.482;9.160;2023-07-20T10:14:02;1.23;;;0.40;;
77769;SDS011;66961;51.482;9.160;2023-07-20T10:16:33;0.85;;;0.43;;
77769;SDS011;66961;51.482;9.160;2023-07-20T10:19:05;1.00;;;0.38;;
77769;SDS011;66961;51.482;9.160;2023-07-20T10:21:35;2.25;;;0.50;;
77769;SDS011;66961;51.482;9.160;2023-07-20T10:26:30;0.60;;;0.32;;
77769;SDS011;66961;51.482;9.160;2023-07-20T10:28:56;0.75;;;0.20;;
77769;SDS011;66961;51.482;9.160;2023-07-20T10:31:22;1.00;;;0.35;;
77769;SDS011;66961;51.482;9.160;2023-07-20T10:33:48;1.13;;;0.30;;
77769;SDS011;66961;51.482;9.160;2023-07-20T10:36:14;1.90;;;0.50;;
77769;SDS011;66961;51.482;9.160;2023-07-20T10:43:43;1.03;;;0.40;;
77769;SDS011;66961;51.482;9.160;2023-07-20T10:46:08;0.93;;;0.30;;
77769;SDS011;66961;51.482;9.160;2023-07-20T10:48:39;2.45;;;0.40;;
77769;SDS011;66961;51.482;9.160;2023-07-20T10:51:28;2.05;;;0.50;;
77769;SDS011;66961;51.482;9.160;2023-07-20T10:53:57;2.03;;;0.57;;
77769;SDS011;66961;51.482;9.160;2023-07-20T10:56:22;1.80;;;0.60;;
77769;SDS011;66961;51.482;9.160;2023-07-20T10:58:56;2.75;;;0.70;;
77769;SDS011;66961;51.482;9.160;2023-07-20T11:01:27;3.42;;;0.40;;
77769;SDS011;66961;51.482;9.160;2023-07-20T11:03:57;1.45;;;0.28;;
77769;SDS011;66961;51.482;9.160;2023-07-20T11:08:48;0.50;;;0.23;;
77769;SDS011;66961;51.482;9.160;2023-07-20T11:11:26;0.63;;;0.30;;
77769;SDS011;66961;51.482;9.160;2023-07-20T11:13:53;0.60;;;0.20;;
77769;SDS011;66961;51.482;9.160;2023-07-20T11:16:20;0.95;;;0.28;;
77769;SDS011;66961;51.482;9.160;2023-07-20T11:19:22;0.90;;;0.22;;
77769;SDS011;66961;51.482;9.160;2023-07-20T11:21:52;0.98;;;0.20;;
77769;SDS011;66961;51.482;9.160;2023-07-20T11:24:19;1.92;;;0.30;;
77769;SDS011;66961;51.482;9.160;2023-07-20T11:29:17;1.67;;;0.35;;
77769;SDS011;66961;51.482;9.160;2023-07-20T11:31:45;1.02;;;0.35;;
77769;SDS011;66961;51.482;9.160;2023-07-20T11:34:15;0.45;;;0.20;;
77769;SDS011;66961;51.482;9.160;2023-07-20T11:36:42;0.63;;;0.38;;
77769;SDS011;66961;51.482;9.160;2023-07-20T11:39:10;1.80;;;0.40;;
77769;SDS011;66961;51.482;9.160;2023-07-20T11:41:36;1.13;;;0.32;;
77769;SDS011;66961;51.482;9.160;2023-07-20T11:44:02;0.57;;;0.40;;
77769;SDS011;66961;51.482;9.160;2023-07-20T11:46:28;1.05;;;0.38;;
77769;SDS011;66961;51.482;9.160;2023-07-20T11:48:57;1.65;;;0.68;;
77769;SDS011;66961;51.482;9.160;2023-07-20T11:51:23;1.75;;;0.43;;
77769;SDS011;66961;51.482;9.160;2023-07-20T11:53:49;1.23;;;0.60;;
77769;SDS011;66961;51.482;9.160;2023-07-20T11:56:14;0.57;;;0.30;;
77769;SDS011;66961;51.482;9.160;2023-07-20T11:58:43;1.33;;;0.50;;
77769;SDS011;66961;51.482;9.160;2023-07-20T12:03:35;0.73;;;0.37;;
77769;SDS011;66961;51.482;9.160;2023-07-20T12:06:09;0.40;;;0.20;;
77769;SDS011;66961;51.482;9.160;2023-07-20T12:08:38;1.67;;;0.40;;
77769;SDS011;66961;51.482;9.160;2023-07-20T12:11:04;1.17;;;0.32;;
77769;SDS011;66961;51.482;9.160;2023-07-20T12:13:39;0.45;;;0.30;;
77769;SDS011;66961;51.482;9.160;2023-07-20T12:16:16;2.17;;;0.47;;
77769;SDS011;66961;51.482;9.160;2023-07-20T12:18:42;0.93;;;0.40;;
77769;SDS011;66961;51.482;9.160;2023-07-20T12:21:08;0.88;;;0.30;;
77769;SDS011;66961;51.482;9.160;2023-07-20T12:23:40;1.30;;;0.60;;
77769;SDS011;66961;51.482;9.160;2023-07-20T12:26:07;1.50;;;0.40;;
77769;SDS011;66961;51.482;9.160;2023-07-20T12:28:35;1.15;;;0.30;;
77769;SDS011;66961;51.482;9.160;2023-07-20T12:31:03;2.42;;;0.28;;
77769;SDS011;66961;51.482;9.160;2023-07-20T12:33:28;0.50;;;0.20;;
77769;SDS011;66961;51.482;9.160;2023-07-20T12:35:54;1.08;;;0.30;;
77769;SDS011;66961;51.482;9.160;2023-07-20T12:38:19;0.70;;;0.40;;
77769;SDS011;66961;51.482;9.160;2023-07-20T12:40:44;2.08;;;0.40;;
77769;SDS011;66961;51.482;9.160;2023-07-20T12:43:10;0.57;;;0.30;;
77769;SDS011;66961;51.482;9.160;2023-07-20T12:45:35;1.92;;;0.30;;
77769;SDS011;66961;51.482;9.160;2023-07-20T12:48:00;3.08;;;0.80;;
77769;SDS011;66961;51.482;9.160;2023-07-20T12:50:26;1.77;;;0.30;;
77769;SDS011;66961;51.482;9.160;2023-07-20T12:52:51;0.40;;;0.20;;
77769;SDS011;66961;51.482;9.160;2023-07-20T12:55:17;3.03;;;0.37;;
77769;SDS011;66961;51.482;9.160;2023-07-20T12:57:42;0.80;;;0.30;;
77769;SDS011;66961;51.482;9.160;2023-07-20T13:00:09;0.75;;;0.32;;
77769;SDS011;66961;51.482;9.160;2023-07-20T13:02:35;0.85;;;0.40;;
77769;SDS011;66961;51.482;9.160;2023-07-20T13:05:01;0.40;;;0.20;;
77769;SDS011;66961;51.482;9.160;2023-07-20T13:07:44;0.40;;;0.20;;
77769;SDS011;66961;51.482;9.160;2023-07-20T13:10:10;0.63;;;0.32;;
77769;SDS011;66961;51.482;9.160;2023-07-20T13:12:36;1.55;;;0.28;;
77769;SDS011;66961;51.482;9.160;2023-07-20T13:15:03;0.98;;;0.40;;
77769;SDS011;66961;51.482;9.160;2023-07-20T13:17:31;1.05;;;0.30;;
77769;SDS011;66961;51.482;9.160;2023-07-20T13:20:03;1.00;;;0.40;;
77769;SDS011;66961;51.482;9.160;2023-07-20T13:22:30;0.80;;;0.30;;
77769;SDS011;66961;51.482;9.160;2023-07-20T13:24:55;0.98;;;0.20;;
77769;SDS011;66961;51.482;9.160;2023-07-20T13:27:20;0.80;;;0.35;;
77769;SDS011;66961;51.482;9.160;2023-07-20T13:29:46;1.23;;;0.20;;
77769;SDS011;66961;51.482;9.160;2023-07-20T13:32:14;0.73;;;0.20;;
77769;SDS011;66961;51.482;9.160;2023-07-20T13:34:40;0.65;;;0.22;;
77769;SDS011;66961;51.482;9.160;2023-07-20T13:37:05;0.95;;;0.20;;
77769;SDS011;66961;51.482;9.160;2023-07-20T13:39:31;0.32;;;0.10;;
77769;SDS011;66961;51.482;9.160;2023-07-20T13:41:56;0.85;;;0.25;;
77769;SDS011;66961;51.482;9.160;2023-07-20T13:44:21;0.80;;;0.30;;
77769;SDS011;66961;51.482;9.160;2023-07-20T13:46:47;0.55;;;0.20;;
77769;SDS011;66961;51.482;9.160;2023-07-20T13:49:13;0.43;;;0.20;;
77769;SDS011;66961;51.482;9.160;2023-07-20T13:51:38;0.73;;;0.30;;
77769;SDS011;66961;51.482;9.160;2023-07-20T13:54:04;2.63;;;0.30;;
77769;SDS011;66961;51.482;9.160;2023-07-20T13:56:29;0.80;;;0.20;;
77769;SDS011;66961;51.482;9.160;2023-07-20T13:58:54;0.85;;;0.30;;
77769;SDS011;66961;51.482;9.160;2023-07-20T14:01:20;0.95;;;0.38;;
77769;SDS011;66961;51.482;9.160;2023-07-20T14:03:45;0.50;;;0.30;;
77769;SDS011;66961;51.482;9.160;2023-07-20T14:06:10;0.60;;;0.30;;
77769;SDS011;66961;51.482;9.160;2023-07-20T14:08:36;0.70;;;0.40;;
77769;SDS011;66961;51.482;9.160;2023-07-20T14:11:01;0.80;;;0.40;;
77769;SDS011;66961;51.482;9.160;2023-07-20T14:13:26;1.05;;;0.40;;
77769;SDS011;66961;51.482;9.160;2023-07-20T14:15:51;0.30;;;0.20;;
77769;SDS011;66961;51.482;9.160;2023-07-20T14:18:17;1.20;;;0.40;;
77769;SDS011;66961;51.482;9.160;2023-07-20T14:20:42;0.60;;;0.32;;
77769;SDS011;66961;51.482;9.160;2023-07-20T14:23:07;0.95;;;0.20;;
77769;SDS011;66961;51.482;9.160;2023-07-20T14:25:33;0.40;;;0.32;;
77769;SDS011;66961;51.482;9.160;2023-07-20T14:27:58;0.70;;;0.38;;
77769;SDS011;66961;51.482;9.160;2023-07-20T14:30:24;0.90;;;0.40;;
77769;SDS011;66961;51.482;9.160;2023-07-20T14:32:49;0.38;;;0.32;;
77769;SDS011;66961;51.482;9.160;2023-07-20T14:35:14;0.52;;;0.38;;
77769;SDS011;66961;51.482;9.160;2023-07-20T14:37:40;1.42;;;0.32;;
77769;SDS011;66961;51.482;9.160;2023-07-20T14:40:05;0.80;;;0.50;;
77769;SDS011;66961;51.482;9.160;2023-07-20T14:42:31;0.75;;;0.47;;
77769;SDS011;66961;51.482;9.160;2023-07-20T14:44:56;0.75;;;0.40;;
77769;SDS011;66961;51.482;9.160;2023-07-20T14:47:21;0.98;;;0.40;;
77769;SDS011;66961;51.482;9.160;2023-07-20T14:49:47;0.63;;;0.50;;
77769;SDS011;66961;51.482;9.160;2023-07-20T14:52:12;0.98;;;0.60;;
77769;SDS011;66961;51.482;9.160;2023-07-20T14:54:37;1.95;;;0.47;;
77769;SDS011;66961;51.482;9.160;2023-07-20T14:57:03;0.80;;;0.30;;